Buoy 41607

sailwx.info

Track history (hours):
 
Tides and Currents Weather Stations Pressure Air Temp Water Temp Dewpoint Dewpoint Depression Visibility Wind Speed Wind Dir Waves Ship Positions

Drifting buoy 41607

Last reported at 2014-Aug-27 09:00 UTC. Time now 2014-Aug-27 11:07 UTC.
Position N 24°31' W 049°53'.

Water temperature 28.3 ° C

Date/timePositionNaut miles runAvg speedWind from/ knotsBaromVisibWave heightAir tempDewpointWater temp
2014-Aug-27 09:00N 24°31' W 049°53'0 0.0 28.3
2014-Aug-27 07:00N 24°31' W 049°53'1 0.5 28.4
2014-Aug-27 06:00N 24°31' W 049°53'1 0.3 28.4
2014-Aug-27 04:00N 24°30' W 049°53'0 0.0 28.4
2014-Aug-27 00:00N 24°30' W 049°53'1 1.0 28.4
2014-Aug-26 23:00N 24°29' W 049°53'0 0.0 28.4
2014-Aug-26 22:00N 24°29' W 049°53'0 0.0 28.5
2014-Aug-26 21:00N 24°29' W 049°53'0 0.0 28.5
2014-Aug-26 20:00N 24°29' W 049°53'1 0.6 28.5
2014-Aug-26 18:00N 24°29' W 049°51'1 0.2 28.6
2014-Aug-26 15:00N 24°28' W 049°51'1 0.2 28.5
2014-Aug-26 11:00N 24°28' W 049°50'0 0.0 28.3
2014-Aug-26 10:00N 24°28' W 049°50'0 0.1 28.3
2014-Aug-26 09:00N 24°28' W 049°50'0 0.2 28.3
2014-Aug-26 07:00N 24°28' W 049°50'0 0.4 28.3
2014-Aug-26 06:00N 24°27' W 049°50'0 0.0 28.3
2014-Aug-26 05:00N 24°27' W 049°50'0 0.2 28.4
2014-Aug-26 02:00N 24°28' W 049°50'0 0.0 28.4
2014-Aug-26 01:00N 24°28' W 049°50'0 0.0 28.4
2014-Aug-26 00:00N 24°28' W 049°50'1 0.6 28.4
2014-Aug-25 23:00N 24°28' W 049°50'1 0.7 28.4
2014-Aug-25 22:00N 24°28' W 049°50'1 0.2 28.4
2014-Aug-25 19:00N 24°27' W 049°50'1 0.4 28.5
2014-Aug-25 17:00N 24°27' W 049°51'0 0.0 28.5
2014-Aug-25 15:00N 24°27' W 049°51'3 2.7 28.4
2014-Aug-25 14:00N 24°25' W 049°50'0 0.0 28.4
2014-Aug-25 12:00N 24°25' W 049°50'0 0.0 28.3
2014-Aug-25 11:00N 24°25' W 049°50'0 0.2 28.3
2014-Aug-25 09:00N 24°24' W 049°50'0 0.0 28.3
2014-Aug-25 08:00N 24°24' W 049°50'0 0.0 28.3
2014-Aug-25 07:00N 24°24' W 049°50'0 0.5 28.3
2014-Aug-25 06:00N 24°24' W 049°49'0 0.0 28.4
2014-Aug-25 05:00N 24°24' W 049°49'1 0.2 28.4
2014-Aug-24 23:00N 24°24' W 049°48'0 0.0 28.6
2014-Aug-24 22:00N 24°24' W 049°48'0 0.0 28.6
2014-Aug-24 21:00N 24°24' W 049°48'0 0.2 28.6
2014-Aug-24 19:00N 24°24' W 049°48'0 0.1 28.7
2014-Aug-24 17:00N 24°25' W 049°48'0 0.0 28.7
2014-Aug-24 15:00N 24°25' W 049°48'1 0.9 28.6
2014-Aug-24 14:00N 24°24' W 049°49'0 0.0 28.5
2014-Aug-24 13:00N 24°24' W 049°49'2 1.7 28.4
2014-Aug-24 12:00N 24°23' W 049°48'0 0.0 28.4
2014-Aug-24 11:00N 24°23' W 049°48'0 0.0 28.4
2014-Aug-24 10:00N 24°23' W 049°48'0 0.4 28.3
2014-Aug-24 09:00N 24°22' W 049°48'1 0.5 28.4
2014-Aug-24 08:00N 24°22' W 049°48'0 0.1 28.4
2014-Aug-24 06:00N 24°22' W 049°48'1 0.2 28.4
2014-Aug-24 01:00N 24°21' W 049°47'0 0.4 28.5
2014-Aug-24 00:00N 24°21' W 049°47'1 0.3 28.5
2014-Aug-23 22:00N 24°21' W 049°46'0 0.2 28.5
2014-Aug-23 20:00N 24°21' W 049°46'0 0.3 28.6
2014-Aug-23 19:00N 24°21' W 049°46'0 0.5 28.7
2014-Aug-23 18:00N 24°22' W 049°46'0 0.0 28.6
2014-Aug-23 17:00N 24°22' W 049°46'2 0.4 28.6
2014-Aug-23 13:00N 24°22' W 049°48'1 1.2 28.4
2014-Aug-23 12:00N 24°21' W 049°47'0 0.2 28.4
2014-Aug-23 09:00N 24°20' W 049°47'0 0.1 28.3
2014-Aug-23 08:00N 24°20' W 049°47'1 0.6 28.4
2014-Aug-23 07:00N 24°20' W 049°46'0 0.0 28.4
2014-Aug-23 06:00N 24°20' W 049°46'1 0.5 28.4
2014-Aug-23 03:00N 24°19' W 049°45'1 0.4 28.4
2014-Aug-23 01:00N 24°19' W 049°45'0 0.0 28.4
2014-Aug-22 23:00N 24°19' W 049°45'1 0.4 28.4
2014-Aug-22 20:00N 24°18' W 049°44'1 0.3 28.5
2014-Aug-22 18:00N 24°18' W 049°44'0 0.1 28.6
2014-Aug-22 16:00N 24°18' W 049°44'1 0.9 28.5
2014-Aug-22 15:00N 24°18' W 049°43'1 1.4 28.5
2014-Aug-22 14:00N 24°17' W 049°43'0 0.0 28.5
2014-Aug-22 12:00N 24°17' W 049°43'1 0.4 28.4
2014-Aug-22 09:00N 24°18' W 049°43'1 0.6 28.4
2014-Aug-22 08:00N 24°18' W 049°42'0 0.0 28.4
2014-Aug-22 07:00N 24°18' W 049°42'0 0.0 28.4
2014-Aug-22 06:00N 24°18' W 049°42'1 0.1 28.4
2014-Aug-22 00:00N 24°17' W 049°42'0 0.4 28.4
2014-Aug-21 23:00N 24°17' W 049°41'0 0.1 28.5
2014-Aug-21 22:00N 24°17' W 049°42'1 0.2 28.5
2014-Aug-21 16:00N 24°16' W 049°40'0 0.0 28.5
2014-Aug-21 14:00N 24°16' W 049°40'0 0.1 28.4
2014-Aug-21 13:00N 24°16' W 049°40'0 0.2 28.4
2014-Aug-21 12:00N 24°16' W 049°40'0 0.0 28.3
2014-Aug-21 10:00N 24°16' W 049°40'0 0.1 28.3
2014-Aug-21 07:00N 24°16' W 049°40'0 0.0 28.3
2014-Aug-21 06:00N 24°16' W 049°40'0 0.3 28.3
2014-Aug-21 05:00N 24°16' W 049°40'1 0.3 28.4
2014-Aug-21 01:00N 24°15' W 049°39'0 0.0 28.4
2014-Aug-21 00:00N 24°15' W 049°39'0 0.1 28.4
2014-Aug-20 20:00N 24°15' W 049°40'0 0.0 28.5
2014-Aug-20 19:00N 24°15' W 049°40'0 0.4 28.6
2014-Aug-20 18:00N 24°14' W 049°39'0 0.5 28.6
2014-Aug-20 17:00N 24°14' W 049°39'0 0.1 28.6
2014-Aug-20 16:00N 24°14' W 049°39'0 0.0 28.5
2014-Aug-20 15:00N 24°14' W 049°39'1 0.5 28.5
2014-Aug-20 12:00N 24°13' W 049°38'0 0.0 28.4
2014-Aug-20 11:00N 24°13' W 049°38'0 0.1 28.4
2014-Aug-20 10:00N 24°13' W 049°38'0 0.2 28.4
2014-Aug-20 09:00N 24°13' W 049°38'1 0.1 28.4
2014-Aug-19 23:00N 24°14' W 049°37'0 0.1 28.6
2014-Aug-19 20:00N 24°14' W 049°37'0 0.1 28.8
2014-Aug-19 18:00N 24°14' W 049°37'0 0.0 28.9
2014-Aug-19 17:00N 24°14' W 049°37'0 0.0 28.8
2014-Aug-19 16:00N 24°14' W 049°37'0 0.0 28.5
2014-Aug-19 13:00N 24°14' W 049°37'1 0.6 28.3
2014-Aug-19 12:00N 24°14' W 049°36'0 0.1 28.2
2014-Aug-19 10:00N 24°13' W 049°36'1 0.9 28.2
2014-Aug-19 09:00N 24°13' W 049°35'0 0.0 28.2
2014-Aug-19 07:00N 24°13' W 049°35'0 0.0 28.3
2014-Aug-19 04:00N 24°13' W 049°35'1 0.6 28.6
2014-Aug-19 03:00N 24°13' W 049°35'1 0.4 28.6
2014-Aug-19 01:00N 24°14' W 049°34'0 0.2 28.6
2014-Aug-19 00:00N 24°14' W 049°34'0 0.1 28.7
2014-Aug-18 23:00N 24°14' W 049°34'0 0.0 28.7
2014-Aug-18 21:00N 24°14' W 049°34'0 0.1 28.8
2014-Aug-18 18:00N 24°14' W 049°34'1 0.2 29.0
2014-Aug-18 15:00N 24°14' W 049°34'1 0.3 29.1
2014-Aug-18 13:00N 24°14' W 049°33'0 0.0 29.0
2014-Aug-18 12:00N 24°14' W 049°33'0 0.0 28.6
2014-Aug-18 11:00N 24°14' W 049°33'0 0.0 28.4
2014-Aug-18 09:00N 24°14' W 049°33'1 0.3 28.3
2014-Aug-18 07:00N 24°14' W 049°32'0 0.2 28.3
2014-Aug-18 04:00N 24°13' W 049°32'0 0.4 28.5
2014-Aug-18 03:00N 24°13' W 049°31'1 0.4 28.5
2014-Aug-18 01:00N 24°14' W 049°31'0 0.2 28.6
2014-Aug-17 23:00N 24°14' W 049°31'0 0.1 28.7
2014-Aug-17 22:00N 24°15' W 049°31'0 0.0 28.7
2014-Aug-17 21:00N 24°15' W 049°31'1 0.4 28.8
2014-Aug-17 19:00N 24°14' W 049°30'0 0.2 29.2
2014-Aug-17 18:00N 24°14' W 049°30'0 0.0 29.2
2014-Aug-17 17:00N 24°14' W 049°30'0 0.1 29.1
2014-Aug-17 15:00N 24°14' W 049°30'0 0.1 28.9
2014-Aug-17 13:00N 24°14' W 049°30'0 0.1 28.2
2014-Aug-17 09:00N 24°15' W 049°30'   28.5
Track history (hours):
 
Tides and Currents Weather Stations Pressure Air Temp Water Temp Dewpoint Dewpoint Depression Visibility Wind Speed Wind Dir Waves Ship Positions

Drifting buoy 41607

Last reported at 2014-Aug-27 09:00 UTC. Time now 2014-Aug-27 11:07 UTC.
Position N 24°31' W 049°53'.

Water temperature 28.3 ° C

Date/timePositionNaut miles runAvg speedWind from/ knotsBaromVisibWave heightAir tempDewpointWater temp
2014-Aug-27 09:00N 24°31' W 049°53'0 0.0 28.3
2014-Aug-27 07:00N 24°31' W 049°53'1 0.5 28.4
2014-Aug-27 06:00N 24°31' W 049°53'1 0.3 28.4
2014-Aug-27 04:00N 24°30' W 049°53'0 0.0 28.4
2014-Aug-27 00:00N 24°30' W 049°53'1 1.0 28.4
2014-Aug-26 23:00N 24°29' W 049°53'0 0.0 28.4
2014-Aug-26 22:00N 24°29' W 049°53'0 0.0 28.5
2014-Aug-26 21:00N 24°29' W 049°53'0 0.0 28.5
2014-Aug-26 20:00N 24°29' W 049°53'1 0.6 28.5
2014-Aug-26 18:00N 24°29' W 049°51'1 0.2 28.6
2014-Aug-26 15:00N 24°28' W 049°51'1 0.2 28.5
2014-Aug-26 11:00N 24°28' W 049°50'0 0.0 28.3
2014-Aug-26 10:00N 24°28' W 049°50'0 0.1 28.3
2014-Aug-26 09:00N 24°28' W 049°50'0 0.2 28.3
2014-Aug-26 07:00N 24°28' W 049°50'0 0.4 28.3
2014-Aug-26 06:00N 24°27' W 049°50'0 0.0 28.3
2014-Aug-26 05:00N 24°27' W 049°50'0 0.2 28.4
2014-Aug-26 02:00N 24°28' W 049°50'0 0.0 28.4
2014-Aug-26 01:00N 24°28' W 049°50'0 0.0 28.4
2014-Aug-26 00:00N 24°28' W 049°50'1 0.6 28.4
2014-Aug-25 23:00N 24°28' W 049°50'1 0.7 28.4
2014-Aug-25 22:00N 24°28' W 049°50'1 0.2 28.4
2014-Aug-25 19:00N 24°27' W 049°50'1 0.4 28.5
2014-Aug-25 17:00N 24°27' W 049°51'0 0.0 28.5
2014-Aug-25 15:00N 24°27' W 049°51'3 2.7 28.4
2014-Aug-25 14:00N 24°25' W 049°50'0 0.0 28.4
2014-Aug-25 12:00N 24°25' W 049°50'0 0.0 28.3
2014-Aug-25 11:00N 24°25' W 049°50'0 0.2 28.3
2014-Aug-25 09:00N 24°24' W 049°50'0 0.0 28.3
2014-Aug-25 08:00N 24°24' W 049°50'0 0.0 28.3
2014-Aug-25 07:00N 24°24' W 049°50'0 0.5 28.3
2014-Aug-25 06:00N 24°24' W 049°49'0 0.0 28.4
2014-Aug-25 05:00N 24°24' W 049°49'1 0.2 28.4
2014-Aug-24 23:00N 24°24' W 049°48'0 0.0 28.6
2014-Aug-24 22:00N 24°24' W 049°48'0 0.0 28.6
2014-Aug-24 21:00N 24°24' W 049°48'0 0.2 28.6
2014-Aug-24 19:00N 24°24' W 049°48'0 0.1 28.7
2014-Aug-24 17:00N 24°25' W 049°48'0 0.0 28.7
2014-Aug-24 15:00N 24°25' W 049°48'1 0.9 28.6
2014-Aug-24 14:00N 24°24' W 049°49'0 0.0 28.5
2014-Aug-24 13:00N 24°24' W 049°49'2 1.7 28.4
2014-Aug-24 12:00N 24°23' W 049°48'0 0.0 28.4
2014-Aug-24 11:00N 24°23' W 049°48'0 0.0 28.4
2014-Aug-24 10:00N 24°23' W 049°48'0 0.4 28.3
2014-Aug-24 09:00N 24°22' W 049°48'1 0.5 28.4
2014-Aug-24 08:00N 24°22' W 049°48'0 0.1 28.4
2014-Aug-24 06:00N 24°22' W 049°48'1 0.2 28.4
2014-Aug-24 01:00N 24°21' W 049°47'0 0.4 28.5
2014-Aug-24 00:00N 24°21' W 049°47'1 0.3 28.5
2014-Aug-23 22:00N 24°21' W 049°46'0 0.2 28.5
2014-Aug-23 20:00N 24°21' W 049°46'0 0.3 28.6
2014-Aug-23 19:00N 24°21' W 049°46'0 0.5 28.7
2014-Aug-23 18:00N 24°22' W 049°46'0 0.0 28.6
2014-Aug-23 17:00N 24°22' W 049°46'2 0.4 28.6
2014-Aug-23 13:00N 24°22' W 049°48'1 1.2 28.4
2014-Aug-23 12:00N 24°21' W 049°47'0 0.2 28.4
2014-Aug-23 09:00N 24°20' W 049°47'0 0.1 28.3
2014-Aug-23 08:00N 24°20' W 049°47'1 0.6 28.4
2014-Aug-23 07:00N 24°20' W 049°46'0 0.0 28.4
2014-Aug-23 06:00N 24°20' W 049°46'1 0.5 28.4
2014-Aug-23 03:00N 24°19' W 049°45'1 0.4 28.4
2014-Aug-23 01:00N 24°19' W 049°45'0 0.0 28.4
2014-Aug-22 23:00N 24°19' W 049°45'1 0.4 28.4
2014-Aug-22 20:00N 24°18' W 049°44'1 0.3 28.5
2014-Aug-22 18:00N 24°18' W 049°44'0 0.1 28.6
2014-Aug-22 16:00N 24°18' W 049°44'1 0.9 28.5
2014-Aug-22 15:00N 24°18' W 049°43'1 1.4 28.5
2014-Aug-22 14:00N 24°17' W 049°43'0 0.0 28.5
2014-Aug-22 12:00N 24°17' W 049°43'1 0.4 28.4
2014-Aug-22 09:00N 24°18' W 049°43'1 0.6 28.4
2014-Aug-22 08:00N 24°18' W 049°42'0 0.0 28.4
2014-Aug-22 07:00N 24°18' W 049°42'0 0.0 28.4
2014-Aug-22 06:00N 24°18' W 049°42'1 0.1 28.4
2014-Aug-22 00:00N 24°17' W 049°42'0 0.4 28.4
2014-Aug-21 23:00N 24°17' W 049°41'0 0.1 28.5
2014-Aug-21 22:00N 24°17' W 049°42'1 0.2 28.5
2014-Aug-21 16:00N 24°16' W 049°40'0 0.0 28.5
2014-Aug-21 14:00N 24°16' W 049°40'0 0.1 28.4
2014-Aug-21 13:00N 24°16' W 049°40'0 0.2 28.4
2014-Aug-21 12:00N 24°16' W 049°40'0 0.0 28.3
2014-Aug-21 10:00N 24°16' W 049°40'0 0.1 28.3
2014-Aug-21 07:00N 24°16' W 049°40'0 0.0 28.3
2014-Aug-21 06:00N 24°16' W 049°40'0 0.3 28.3
2014-Aug-21 05:00N 24°16' W 049°40'1 0.3 28.4
2014-Aug-21 01:00N 24°15' W 049°39'0 0.0 28.4
2014-Aug-21 00:00N 24°15' W 049°39'0 0.1 28.4
2014-Aug-20 20:00N 24°15' W 049°40'0 0.0 28.5
2014-Aug-20 19:00N 24°15' W 049°40'0 0.4 28.6
2014-Aug-20 18:00N 24°14' W 049°39'0 0.5 28.6
2014-Aug-20 17:00N 24°14' W 049°39'0 0.1 28.6
2014-Aug-20 16:00N 24°14' W 049°39'0 0.0 28.5
2014-Aug-20 15:00N 24°14' W 049°39'1 0.5 28.5
2014-Aug-20 12:00N 24°13' W 049°38'0 0.0 28.4
2014-Aug-20 11:00N 24°13' W 049°38'0 0.1 28.4
2014-Aug-20 10:00N 24°13' W 049°38'0 0.2 28.4
2014-Aug-20 09:00N 24°13' W 049°38'1 0.1 28.4
2014-Aug-19 23:00N 24°14' W 049°37'0 0.1 28.6
2014-Aug-19 20:00N 24°14' W 049°37'0 0.1 28.8
2014-Aug-19 18:00N 24°14' W 049°37'0 0.0 28.9
2014-Aug-19 17:00N 24°14' W 049°37'0 0.0 28.8
2014-Aug-19 16:00N 24°14' W 049°37'0 0.0 28.5
2014-Aug-19 13:00N 24°14' W 049°37'1 0.6 28.3
2014-Aug-19 12:00N 24°14' W 049°36'0 0.1 28.2
2014-Aug-19 10:00N 24°13' W 049°36'1 0.9 28.2
2014-Aug-19 09:00N 24°13' W 049°35'0 0.0 28.2
2014-Aug-19 07:00N 24°13' W 049°35'0 0.0 28.3
2014-Aug-19 04:00N 24°13' W 049°35'1 0.6 28.6
2014-Aug-19 03:00N 24°13' W 049°35'1 0.4 28.6
2014-Aug-19 01:00N 24°14' W 049°34'0 0.2 28.6
2014-Aug-19 00:00N 24°14' W 049°34'0 0.1 28.7
2014-Aug-18 23:00N 24°14' W 049°34'0 0.0 28.7
2014-Aug-18 21:00N 24°14' W 049°34'0 0.1 28.8
2014-Aug-18 18:00N 24°14' W 049°34'1 0.2 29.0
2014-Aug-18 15:00N 24°14' W 049°34'1 0.3 29.1
2014-Aug-18 13:00N 24°14' W 049°33'0 0.0 29.0
2014-Aug-18 12:00N 24°14' W 049°33'0 0.0 28.6
2014-Aug-18 11:00N 24°14' W 049°33'0 0.0 28.4
2014-Aug-18 09:00N 24°14' W 049°33'1 0.3 28.3
2014-Aug-18 07:00N 24°14' W 049°32'0 0.2 28.3
2014-Aug-18 04:00N 24°13' W 049°32'0 0.4 28.5
2014-Aug-18 03:00N 24°13' W 049°31'1 0.4 28.5
2014-Aug-18 01:00N 24°14' W 049°31'0 0.2 28.6
2014-Aug-17 23:00N 24°14' W 049°31'0 0.1 28.7
2014-Aug-17 22:00N 24°15' W 049°31'0 0.0 28.7
2014-Aug-17 21:00N 24°15' W 049°31'1 0.4 28.8
2014-Aug-17 19:00N 24°14' W 049°30'0 0.2 29.2
2014-Aug-17 18:00N 24°14' W 049°30'0 0.0 29.2
2014-Aug-17 17:00N 24°14' W 049°30'0 0.1 29.1
2014-Aug-17 15:00N 24°14' W 049°30'0 0.1 28.9
2014-Aug-17 13:00N 24°14' W 049°30'0 0.1 28.2
2014-Aug-17 09:00N 24°15' W 049°30'   28.5

Dump ship's entire track history